New Laguna, New Mexico
Current Conditions -  °F | °C
As of 11:15 AM on Wednesday 28 Jan 2015 (Local Time) from KGNT Reporting Station
Clear Clear  
Wind Chill: 52°   Ceiling: Unl
Heat Index: 52°   Visibility: 10mi
Dew Point: 35°   Wind: 7mph
Humidity: 54%   Direction: 360°N
Pressure: 30.32"   Gusts: NA
Location:  35.04°N, 107.42°W
Report Text: KGNT 281815Z AUTO 36006KT 10SM CLR 11/02 A3032 RMK AO2 T01090019
Loading
Personal Weather Stations






























Interactive Weather Map New forecast layout! Learn more

10-Day Weather Forecast

Advertisements
Track Severe Weather on mobile